Decoded Metar for KOCW (WASHINGTON in NC, USA) (IATA:OCW) | Meteo·Mobile Aviation Weather
aviador You're here:

KOCW Decoded Metar

WASHINGTON in NC, USA
Report Time2018-11-18 20:40:00
UTC Time2018-11-18 21:11:01
Flight Rules vfr VFR
Wind060° at 03 kt
W.Decomp.*RWY 05: 2.9 kt HW 0.9 kt RCW
RWY 35: 0.6 kt HW 2.9 kt RCW
W.Rank060° ranks 14
Current wind is below 060° avg. (6.0)
Visibility9999 m
Phenomena:N/A
Clouds:N/A
Expected CloudBase > 3,600 ft AGL from Temp-Dew spread
CeilingNone
Temp16°C (ISA +1)
Dew Point07°C (55% RH)
AAT14.2°C
QNH1024 hPa
Density Alt-69 ft
Elevation39 ft
Report Wrong Elevation
Raw Report
METAR KOCW 182040Z AUTO 06003KT 10SM CLR 16/07 A3024 RMK AO2 T01580068=

Extra information for KOCW:More info

Metar Taf Metar & Taf Last 4 Metars F.Rules Stats Wind Profile Meteogram Temp Stats Airport Information Weather charts Add Link Nearby VenuesMetar ALERT Operation Metar Decoded Social comments

AIRNAV info for KOCW